createdAt,value
2018-02-18T00:03:10.990Z,15.70
2018-02-18T00:08:39.092Z,15.23
2018-02-18T00:14:10.540Z,16.30
2018-02-18T00:19:39.354Z,16.23
2018-02-18T00:25:07.505Z,16.40
2018-02-18T00:30:35.652Z,17.03
2018-02-18T00:36:04.582Z,16.87
2018-02-18T00:41:33.494Z,18.87
2018-02-18T00:47:01.650Z,17.90
2018-02-18T00:52:29.790Z,18.20
2018-02-18T00:57:58.050Z,17.73
2018-02-18T01:03:26.194Z,18.23
2018-02-18T01:08:54.339Z,17.27
2018-02-18T01:14:22.486Z,17.80
2018-02-18T01:19:50.636Z,15.83
2018-02-18T01:25:18.788Z,19.07
2018-02-18T01:30:47.695Z,15.50
2018-02-18T01:36:15.840Z,19.73
2018-02-18T01:41:44.755Z,18.00
2018-02-18T01:47:12.903Z,18.20
2018-02-18T01:52:41.832Z,18.27
2018-02-18T01:58:10.768Z,19.43
2018-02-18T02:03:39.715Z,19.10
2018-02-18T02:09:08.610Z,18.47
2018-02-18T02:14:36.798Z,19.37
2018-02-18T02:20:04.981Z,18.80
2018-02-18T02:25:33.910Z,17.77
2018-02-18T02:31:02.901Z,19.67
2018-02-18T02:36:31.066Z,20.27
2018-02-18T02:41:59.211Z,21.33
2018-02-18T02:47:28.110Z,18.83
2018-02-18T02:52:57.062Z,19.10
2018-02-18T02:58:25.216Z,19.30
2018-02-18T03:03:53.382Z,19.37
2018-02-18T03:09:21.531Z,21.67
2018-02-18T03:14:49.697Z,19.10
2018-02-18T03:20:17.844Z,19.50
2018-02-18T03:25:45.998Z,20.97
2018-02-18T03:31:14.910Z,17.77
2018-02-18T03:36:43.050Z,21.30
2018-02-18T03:42:11.976Z,20.60
2018-02-18T03:47:40.139Z,18.50
2018-02-18T03:53:08.324Z,20.10
2018-02-18T03:58:37.258Z,18.57
2018-02-18T04:04:05.425Z,19.90
2018-02-18T04:09:33.621Z,19.73
2018-02-18T04:15:01.778Z,20.10
2018-02-18T04:20:29.941Z,20.37
2018-02-18T04:25:58.172Z,23.13
2018-02-18T04:31:28.016Z,21.30
2018-02-18T04:36:56.149Z,22.60
2018-02-18T04:42:25.050Z,21.30
2018-02-18T04:47:53.198Z,20.40
2018-02-18T04:53:22.121Z,20.57
2018-02-18T04:58:50.271Z,20.90
2018-02-18T05:04:19.190Z,22.63
2018-02-18T05:09:47.351Z,21.13
2018-02-18T05:15:16.630Z,20.40
2018-02-18T05:20:44.789Z,20.67
2018-02-18T05:26:13.714Z,22.50
2018-02-18T05:31:41.870Z,22.17
2018-02-18T05:37:10.013Z,21.67
2018-02-18T05:42:38.189Z,21.10
2018-02-18T05:48:07.285Z,21.67
2018-02-18T05:53:35.467Z,22.90
2018-02-18T05:59:03.631Z,21.47
2018-02-18T06:04:31.790Z,23.27
2018-02-18T06:10:00.714Z,21.97
2018-02-18T06:15:29.641Z,21.40
2018-02-18T06:20:57.804Z,22.60
2018-02-18T06:26:25.956Z,21.33
2018-02-18T06:31:54.102Z,22.80
2018-02-18T06:37:22.242Z,23.07
2018-02-18T06:42:51.152Z,22.37
2018-02-18T06:48:19.305Z,23.60
2018-02-18T06:53:48.255Z,22.33
2018-02-18T06:59:16.406Z,22.97
2018-02-18T07:04:44.560Z,23.20
2018-02-18T07:10:12.720Z,22.80
2018-02-18T07:15:40.859Z,23.10
2018-02-18T07:21:09.009Z,22.00
2018-02-18T07:26:37.153Z,25.03
2018-02-18T07:32:06.091Z,23.30
2018-02-18T07:37:35.002Z,22.70
2018-02-18T07:43:03.200Z,23.27
2018-02-18T07:48:31.386Z,20.93
2018-02-18T07:53:59.553Z,23.63
2018-02-18T07:59:27.706Z,19.67
2018-02-18T08:04:56.636Z,20.00
2018-02-18T08:10:24.769Z,19.20
2018-02-18T08:15:53.692Z,19.37
2018-02-18T08:21:22.601Z,21.50
2018-02-18T08:26:51.473Z,21.03
2018-02-18T08:32:21.333Z,17.00
2018-02-18T08:37:50.372Z,20.10
2018-02-18T08:43:19.285Z,17.30
2018-02-18T08:48:47.474Z,19.53
2018-02-18T08:54:15.745Z,18.47
2018-02-18T08:59:43.890Z,17.73
2018-02-18T09:05:12.023Z,18.63
2018-02-18T09:10:40.162Z,19.10
2018-02-18T09:16:08.339Z,21.40
2018-02-18T09:21:37.269Z,23.33
2018-02-18T09:27:05.421Z,24.40
2018-02-18T09:32:33.543Z,21.90
2018-02-18T09:38:02.643Z,23.07
2018-02-18T09:43:30.813Z,23.37
2018-02-18T09:48:58.977Z,22.60
2018-02-18T09:54:27.214Z,25.70
2018-02-18T09:59:56.121Z,24.10
2018-02-18T10:05:24.959Z,26.40
2018-02-18T10:10:54.147Z,25.30
2018-02-18T10:16:22.286Z,24.40
2018-02-18T10:21:50.515Z,24.00
2018-02-18T10:27:19.419Z,25.90
2018-02-18T10:32:48.352Z,24.70
2018-02-18T10:38:17.595Z,23.20
2018-02-18T10:43:45.878Z,24.13
2018-02-18T10:49:14.954Z,21.67
2018-02-18T10:54:43.101Z,20.90
2018-02-18T11:00:11.301Z,21.43
2018-02-18T11:05:40.225Z,23.20
2018-02-18T11:11:09.126Z,22.27
2018-02-18T11:16:37.285Z,18.70
2018-02-18T11:22:06.204Z,19.13
2018-02-18T11:27:35.292Z,19.60
2018-02-18T11:33:03.457Z,16.90
2018-02-18T11:38:31.716Z,17.83
2018-02-18T11:44:00.615Z,15.50
2018-02-18T11:49:28.775Z,15.53
2018-02-18T11:54:57.799Z,14.50
2018-02-18T12:00:25.963Z,13.37
2018-02-18T12:05:54.091Z,13.67
2018-02-18T12:11:22.211Z,14.33
2018-02-18T12:16:50.370Z,16.03
2018-02-18T12:22:18.527Z,13.57
2018-02-18T12:27:46.680Z,15.47
2018-02-18T12:33:14.849Z,16.17
2018-02-18T12:38:43.762Z,16.03
2018-02-18T12:44:11.919Z,15.57
2018-02-18T12:49:40.048Z,14.70
2018-02-18T12:55:08.187Z,13.60
2018-02-18T13:00:36.342Z,15.43
2018-02-18T13:06:04.572Z,14.00
2018-02-18T13:11:32.740Z,15.17
2018-02-18T13:17:00.919Z,14.83
2018-02-18T13:22:29.835Z,12.70
2018-02-18T13:27:57.975Z,15.40
2018-02-18T13:33:26.113Z,16.50
2018-02-18T13:38:55.050Z,15.60
2018-02-18T13:44:23.995Z,17.50
2018-02-18T13:49:52.587Z,16.80
2018-02-18T13:55:20.717Z,18.27
2018-02-18T14:00:48.937Z,15.40
2018-02-18T14:06:18.189Z,16.27
2018-02-18T14:11:46.350Z,17.30
2018-02-18T14:17:14.499Z,15.73
2018-02-18T14:22:42.664Z,12.97
2018-02-18T14:28:10.799Z,18.93
2018-02-18T14:33:38.983Z,12.93
2018-02-18T14:39:07.927Z,14.07
2018-02-18T14:44:54.544Z,12.13
2018-02-18T14:56:55.997Z,13.80
2018-02-18T15:02:24.139Z,20.93
2018-02-18T15:07:52.294Z,16.17
2018-02-18T15:13:21.460Z,12.53
2018-02-18T15:18:49.628Z,11.50
2018-02-18T15:24:17.786Z,10.77
2018-02-18T15:29:45.932Z,11.40
2018-02-18T15:35:14.165Z,10.10
2018-02-18T15:40:42.327Z,10.67
2018-02-18T15:46:10.504Z,10.20
2018-02-18T15:51:39.285Z,11.20
2018-02-18T15:57:08.490Z,10.07
2018-02-18T16:02:36.663Z,10.97
2018-02-18T16:08:05.595Z,10.67
2018-02-18T16:13:33.764Z,11.00
2018-02-18T16:19:02.349Z,11.37
2018-02-18T16:24:30.591Z,11.80
2018-02-18T16:29:58.829Z,11.27
2018-02-18T16:35:26.969Z,11.40
2018-02-18T16:40:55.126Z,12.80
2018-02-18T16:46:24.121Z,13.23
2018-02-18T16:51:52.301Z,14.00
2018-02-18T16:57:20.449Z,15.27
2018-02-18T17:02:48.691Z,15.57
2018-02-18T17:08:16.847Z,15.20
2018-02-18T17:13:45.033Z,14.30
2018-02-18T17:19:13.179Z,12.90
2018-02-18T17:24:42.114Z,14.03
2018-02-18T17:30:10.293Z,14.40
2018-02-18T17:35:38.472Z,14.37
2018-02-18T17:41:07.541Z,15.27
2018-02-18T17:46:36.626Z,14.97
2018-02-18T17:52:05.969Z,17.30
2018-02-18T17:57:34.153Z,18.13
2018-02-18T18:03:02.486Z,18.70
2018-02-18T18:08:30.710Z,17.07
2018-02-18T18:13:58.907Z,17.10
2018-02-18T18:19:27.216Z,17.23
2018-02-18T18:24:55.667Z,17.27
2018-02-18T18:30:43.334Z,18.20
2018-02-18T18:36:11.472Z,16.60
2018-02-18T18:41:39.636Z,18.67
2018-02-18T18:47:07.787Z,18.10
2018-02-18T18:52:36.073Z,18.03
2018-02-18T18:58:04.313Z,17.47
2018-02-18T19:03:33.255Z,17.50
2018-02-18T19:09:03.181Z,17.30
2018-02-18T19:14:31.351Z,18.07
2018-02-18T19:19:59.527Z,17.03
2018-02-18T19:25:27.713Z,17.90
2018-02-18T19:30:55.884Z,19.57
2018-02-18T19:36:24.824Z,18.13
2018-02-18T19:41:53.881Z,18.67
2018-02-18T19:47:22.801Z,18.20
2018-02-18T19:52:51.008Z,16.60
2018-02-18T19:58:19.270Z,19.00
2018-02-18T20:03:47.410Z,18.37
2018-02-18T20:09:15.542Z,19.50
2018-02-18T20:14:43.771Z,19.90
2018-02-18T20:20:12.096Z,18.77
2018-02-18T20:25:40.323Z,19.40
2018-02-18T20:31:08.579Z,20.00
2018-02-18T20:36:37.490Z,19.10
2018-02-18T20:42:05.821Z,19.07
2018-02-18T20:47:33.981Z,17.83
2018-02-18T20:53:02.204Z,18.97
2018-02-18T20:58:30.423Z,17.47
2018-02-18T21:03:58.986Z,19.40
2018-02-18T21:09:27.147Z,17.63
2018-02-18T21:14:56.058Z,20.30
2018-02-18T21:20:24.307Z,20.40
2018-02-18T21:25:53.210Z,20.97
2018-02-18T21:31:21.363Z,18.83
2018-02-18T21:36:50.291Z,19.43
2018-02-18T21:42:18.461Z,18.20
2018-02-18T21:47:46.669Z,17.70
2018-02-18T21:53:14.853Z,19.73
2018-02-18T21:58:43.022Z,18.40
2018-02-18T22:04:11.181Z,21.40
2018-02-18T22:09:40.035Z,19.83
2018-02-18T22:15:08.974Z,20.30
2018-02-18T22:20:37.904Z,21.30
2018-02-18T22:26:06.847Z,20.47
2018-02-18T22:31:35.762Z,20.67
2018-02-18T22:37:03.938Z,19.60
2018-02-18T22:42:32.234Z,18.33
2018-02-18T22:48:00.405Z,17.63
2018-02-18T22:53:28.657Z,17.23
2018-02-18T22:58:56.796Z,16.77
2018-02-18T23:04:25.733Z,20.13
2018-02-18T23:09:54.637Z,18.90
2018-02-18T23:15:22.777Z,17.77
2018-02-18T23:21:10.777Z,17.80
2018-02-18T23:26:39.684Z,18.77
2018-02-18T23:32:07.845Z,17.30
2018-02-18T23:37:36.793Z,17.20
2018-02-18T23:43:04.942Z,19.60
2018-02-18T23:48:33.130Z,18.13
2018-02-18T23:54:01.321Z,19.10
2018-02-18T23:59:30.248Z,19.60
